sensor_id;sensor_type;location;lat;lon;timestamp;P1;durP1;ratioP1;P2;durP2;ratioP2
14984;SDS011;7588;62.368;25.902;2022-12-20T00:00:49;5.23;;;3.47;;
14984;SDS011;7588;62.368;25.902;2022-12-20T00:03:15;4.00;;;3.63;;
14984;SDS011;7588;62.368;25.902;2022-12-20T00:05:41;6.50;;;4.17;;
14984;SDS011;7588;62.368;25.902;2022-12-20T00:08:08;3.97;;;3.57;;
14984;SDS011;7588;62.368;25.902;2022-12-20T00:10:38;5.00;;;3.80;;
14984;SDS011;7588;62.368;25.902;2022-12-20T00:13:05;7.33;;;4.63;;
14984;SDS011;7588;62.368;25.902;2022-12-20T00:15:31;4.60;;;4.20;;
14984;SDS011;7588;62.368;25.902;2022-12-20T00:17:57;3.83;;;2.97;;
14984;SDS011;7588;62.368;25.902;2022-12-20T00:20:24;5.20;;;3.60;;
14984;SDS011;7588;62.368;25.902;2022-12-20T00:22:50;3.73;;;3.17;;
14984;SDS011;7588;62.368;25.902;2022-12-20T00:25:16;4.87;;;3.47;;
14984;SDS011;7588;62.368;25.902;2022-12-20T00:27:42;5.23;;;4.10;;
14984;SDS011;7588;62.368;25.902;2022-12-20T00:30:08;6.43;;;3.87;;
14984;SDS011;7588;62.368;25.902;2022-12-20T00:32:34;4.27;;;3.60;;
14984;SDS011;7588;62.368;25.902;2022-12-20T00:35:00;3.30;;;3.00;;
14984;SDS011;7588;62.368;25.902;2022-12-20T00:37:26;3.27;;;2.97;;
14984;SDS011;7588;62.368;25.902;2022-12-20T00:39:51;5.47;;;3.40;;
14984;SDS011;7588;62.368;25.902;2022-12-20T00:42:17;7.17;;;3.23;;
14984;SDS011;7588;62.368;25.902;2022-12-20T00:44:43;6.30;;;3.70;;
14984;SDS011;7588;62.368;25.902;2022-12-20T00:47:09;3.47;;;2.60;;
14984;SDS011;7588;62.368;25.902;2022-12-20T00:49:34;2.73;;;2.53;;
14984;SDS011;7588;62.368;25.902;2022-12-20T00:52:00;5.63;;;3.13;;
14984;SDS011;7588;62.368;25.902;2022-12-20T00:54:26;2.90;;;2.60;;
14984;SDS011;7588;62.368;25.902;2022-12-20T00:56:51;3.60;;;2.10;;
14984;SDS011;7588;62.368;25.902;2022-12-20T00:59:17;3.80;;;2.40;;
14984;SDS011;7588;62.368;25.902;2022-12-20T01:01:43;2.07;;;1.90;;
14984;SDS011;7588;62.368;25.902;2022-12-20T01:04:10;8.27;;;2.33;;
14984;SDS011;7588;62.368;25.902;2022-12-20T01:06:36;3.33;;;2.43;;
14984;SDS011;7588;62.368;25.902;2022-12-20T01:09:02;2.57;;;2.37;;
14984;SDS011;7588;62.368;25.902;2022-12-20T01:11:30;3.97;;;2.17;;
14984;SDS011;7588;62.368;25.902;2022-12-20T01:13:59;2.70;;;1.83;;
14984;SDS011;7588;62.368;25.902;2022-12-20T01:16:34;3.90;;;1.90;;
14984;SDS011;7588;62.368;25.902;2022-12-20T01:19:04;2.33;;;2.00;;
14984;SDS011;7588;62.368;25.902;2022-12-20T01:21:31;3.97;;;2.10;;
14984;SDS011;7588;62.368;25.902;2022-12-20T01:23:57;3.70;;;3.00;;
14984;SDS011;7588;62.368;25.902;2022-12-20T01:26:24;2.37;;;1.93;;
14984;SDS011;7588;62.368;25.902;2022-12-20T01:28:52;2.60;;;2.40;;
14984;SDS011;7588;62.368;25.902;2022-12-20T01:31:19;8.10;;;2.30;;
14984;SDS011;7588;62.368;25.902;2022-12-20T01:33:46;5.67;;;2.30;;
14984;SDS011;7588;62.368;25.902;2022-12-20T01:36:14;2.87;;;2.50;;
14984;SDS011;7588;62.368;25.902;2022-12-20T01:38:55;2.37;;;2.17;;
14984;SDS011;7588;62.368;25.902;2022-12-20T01:41:41;4.00;;;2.40;;
14984;SDS011;7588;62.368;25.902;2022-12-20T01:46:44;2.90;;;2.13;;
14984;SDS011;7588;62.368;25.902;2022-12-20T01:49:33;3.03;;;2.00;;
14984;SDS011;7588;62.368;25.902;2022-12-20T01:54:51;8.60;;;3.43;;
14984;SDS011;7588;62.368;25.902;2022-12-20T01:57:31;3.80;;;2.43;;
14984;SDS011;7588;62.368;25.902;2022-12-20T02:00:09;9.57;;;3.30;;
14984;SDS011;7588;62.368;25.902;2022-12-20T02:02:36;6.60;;;3.33;;
14984;SDS011;7588;62.368;25.902;2022-12-20T02:05:02;4.60;;;2.80;;
14984;SDS011;7588;62.368;25.902;2022-12-20T02:07:28;4.80;;;3.00;;
14984;SDS011;7588;62.368;25.902;2022-12-20T02:09:57;7.10;;;2.70;;
14984;SDS011;7588;62.368;25.902;2022-12-20T02:12:26;10.67;;;4.10;;
14984;SDS011;7588;62.368;25.902;2022-12-20T02:29:24;14.53;;;4.70;;
14984;SDS011;7588;62.368;25.902;2022-12-20T02:34:30;15.27;;;5.03;;
14984;SDS011;7588;62.368;25.902;2022-12-20T02:36:59;13.63;;;3.77;;
14984;SDS011;7588;62.368;25.902;2022-12-20T02:39:25;14.10;;;5.50;;
14984;SDS011;7588;62.368;25.902;2022-12-20T02:41:54;16.53;;;5.30;;
14984;SDS011;7588;62.368;25.902;2022-12-20T02:44:25;10.57;;;4.87;;
14984;SDS011;7588;62.368;25.902;2022-12-20T02:47:13;19.47;;;6.00;;
14984;SDS011;7588;62.368;25.902;2022-12-20T02:49:43;12.37;;;5.30;;
14984;SDS011;7588;62.368;25.902;2022-12-20T02:52:11;19.37;;;6.47;;
14984;SDS011;7588;62.368;25.902;2022-12-20T02:54:38;21.47;;;6.17;;
14984;SDS011;7588;62.368;25.902;2022-12-20T02:57:05;16.73;;;5.77;;
14984;SDS011;7588;62.368;25.902;2022-12-20T02:59:44;13.67;;;5.80;;
14984;SDS011;7588;62.368;25.902;2022-12-20T03:02:22;14.97;;;6.30;;
14984;SDS011;7588;62.368;25.902;2022-12-20T03:04:49;18.83;;;5.70;;
14984;SDS011;7588;62.368;25.902;2022-12-20T03:07:16;14.73;;;5.90;;
14984;SDS011;7588;62.368;25.902;2022-12-20T03:09:42;23.07;;;6.30;;
14984;SDS011;7588;62.368;25.902;2022-12-20T03:12:09;19.50;;;5.97;;
14984;SDS011;7588;62.368;25.902;2022-12-20T03:14:36;17.93;;;6.03;;
14984;SDS011;7588;62.368;25.902;2022-12-20T03:17:03;16.07;;;7.20;;
14984;SDS011;7588;62.368;25.902;2022-12-20T03:19:30;16.77;;;6.60;;
14984;SDS011;7588;62.368;25.902;2022-12-20T03:21:55;19.77;;;6.70;;
14984;SDS011;7588;62.368;25.902;2022-12-20T03:24:21;18.60;;;7.43;;
14984;SDS011;7588;62.368;25.902;2022-12-20T03:26:47;15.53;;;6.17;;
14984;SDS011;7588;62.368;25.902;2022-12-20T03:29:13;17.07;;;6.90;;
14984;SDS011;7588;62.368;25.902;2022-12-20T03:31:39;19.07;;;7.20;;
14984;SDS011;7588;62.368;25.902;2022-12-20T03:34:04;17.97;;;6.43;;
14984;SDS011;7588;62.368;25.902;2022-12-20T03:36:30;16.07;;;6.80;;
14984;SDS011;7588;62.368;25.902;2022-12-20T03:38:56;22.67;;;6.57;;
14984;SDS011;7588;62.368;25.902;2022-12-20T03:41:22;17.10;;;6.60;;
14984;SDS011;7588;62.368;25.902;2022-12-20T03:43:48;17.87;;;6.80;;
14984;SDS011;7588;62.368;25.902;2022-12-20T03:46:14;15.37;;;6.87;;
14984;SDS011;7588;62.368;25.902;2022-12-20T03:48:40;16.37;;;7.67;;
14984;SDS011;7588;62.368;25.902;2022-12-20T03:51:07;18.30;;;6.93;;
14984;SDS011;7588;62.368;25.902;2022-12-20T03:53:32;19.53;;;7.03;;
14984;SDS011;7588;62.368;25.902;2022-12-20T03:55:58;18.10;;;6.90;;
14984;SDS011;7588;62.368;25.902;2022-12-20T03:58:24;17.90;;;6.50;;
14984;SDS011;7588;62.368;25.902;2022-12-20T04:00:49;17.63;;;6.27;;
14984;SDS011;7588;62.368;25.902;2022-12-20T04:03:15;15.13;;;6.10;;
14984;SDS011;7588;62.368;25.902;2022-12-20T04:05:41;15.37;;;5.50;;
14984;SDS011;7588;62.368;25.902;2022-12-20T04:08:07;17.37;;;6.57;;
14984;SDS011;7588;62.368;25.902;2022-12-20T04:10:36;19.93;;;6.83;;
14984;SDS011;7588;62.368;25.902;2022-12-20T04:13:21;14.90;;;6.63;;
14984;SDS011;7588;62.368;25.902;2022-12-20T04:15:50;18.70;;;6.97;;
14984;SDS011;7588;62.368;25.902;2022-12-20T04:18:15;17.40;;;6.93;;
14984;SDS011;7588;62.368;25.902;2022-12-20T04:20:41;20.53;;;7.47;;
14984;SDS011;7588;62.368;25.902;2022-12-20T04:23:07;23.03;;;8.07;;
14984;SDS011;7588;62.368;25.902;2022-12-20T04:25:32;20.03;;;7.33;;
14984;SDS011;7588;62.368;25.902;2022-12-20T04:27:58;17.70;;;7.23;;
14984;SDS011;7588;62.368;25.902;2022-12-20T04:30:24;17.87;;;7.33;;
14984;SDS011;7588;62.368;25.902;2022-12-20T04:32:50;18.43;;;8.37;;
14984;SDS011;7588;62.368;25.902;2022-12-20T04:35:18;17.73;;;7.00;;
14984;SDS011;7588;62.368;25.902;2022-12-20T04:37:44;17.87;;;7.03;;
14984;SDS011;7588;62.368;25.902;2022-12-20T04:40:11;18.80;;;7.23;;
14984;SDS011;7588;62.368;25.902;2022-12-20T04:42:37;16.10;;;6.17;;
14984;SDS011;7588;62.368;25.902;2022-12-20T04:45:03;17.23;;;7.33;;
14984;SDS011;7588;62.368;25.902;2022-12-20T04:47:29;15.67;;;7.47;;
14984;SDS011;7588;62.368;25.902;2022-12-20T04:49:55;24.53;;;7.17;;
14984;SDS011;7588;62.368;25.902;2022-12-20T04:52:21;21.70;;;7.20;;
14984;SDS011;7588;62.368;25.902;2022-12-20T04:55:05;18.90;;;7.93;;
14984;SDS011;7588;62.368;25.902;2022-12-20T04:57:31;17.93;;;8.37;;
14984;SDS011;7588;62.368;25.902;2022-12-20T04:59:57;22.57;;;7.70;;
14984;SDS011;7588;62.368;25.902;2022-12-20T05:02:23;24.33;;;7.87;;
14984;SDS011;7588;62.368;25.902;2022-12-20T05:04:48;16.03;;;7.07;;
14984;SDS011;7588;62.368;25.902;2022-12-20T05:07:14;19.07;;;7.90;;
14984;SDS011;7588;62.368;25.902;2022-12-20T05:09:40;22.40;;;8.07;;
14984;SDS011;7588;62.368;25.902;2022-12-20T05:12:06;16.67;;;7.03;;
14984;SDS011;7588;62.368;25.902;2022-12-20T05:14:31;15.30;;;6.77;;
14984;SDS011;7588;62.368;25.902;2022-12-20T05:16:57;15.93;;;7.30;;
14984;SDS011;7588;62.368;25.902;2022-12-20T05:19:23;18.60;;;7.37;;
14984;SDS011;7588;62.368;25.902;2022-12-20T05:21:49;15.73;;;7.73;;
14984;SDS011;7588;62.368;25.902;2022-12-20T05:24:33;14.47;;;6.93;;
14984;SDS011;7588;62.368;25.902;2022-12-20T05:27:17;14.37;;;7.13;;
14984;SDS011;7588;62.368;25.902;2022-12-20T05:29:42;18.60;;;6.63;;
14984;SDS011;7588;62.368;25.902;2022-12-20T05:32:08;14.70;;;7.20;;
14984;SDS011;7588;62.368;25.902;2022-12-20T05:34:34;12.63;;;6.07;;
14984;SDS011;7588;62.368;25.902;2022-12-20T05:37:00;15.67;;;7.27;;
14984;SDS011;7588;62.368;25.902;2022-12-20T05:39:25;16.70;;;7.10;;
14984;SDS011;7588;62.368;25.902;2022-12-20T05:41:52;15.07;;;6.97;;
14984;SDS011;7588;62.368;25.902;2022-12-20T05:44:17;15.17;;;7.43;;
14984;SDS011;7588;62.368;25.902;2022-12-20T05:46:44;16.93;;;7.90;;
14984;SDS011;7588;62.368;25.902;2022-12-20T05:49:10;20.40;;;7.43;;
14984;SDS011;7588;62.368;25.902;2022-12-20T05:51:35;14.57;;;6.93;;
14984;SDS011;7588;62.368;25.902;2022-12-20T05:54:01;18.20;;;7.97;;
14984;SDS011;7588;62.368;25.902;2022-12-20T05:56:27;18.53;;;8.47;;
14984;SDS011;7588;62.368;25.902;2022-12-20T05:58:52;18.30;;;8.60;;
14984;SDS011;7588;62.368;25.902;2022-12-20T06:01:18;21.17;;;9.17;;
14984;SDS011;7588;62.368;25.902;2022-12-20T06:03:44;19.23;;;8.63;;
14984;SDS011;7588;62.368;25.902;2022-12-20T06:06:10;22.10;;;9.70;;
14984;SDS011;7588;62.368;25.902;2022-12-20T06:08:36;20.37;;;8.53;;
14984;SDS011;7588;62.368;25.902;2022-12-20T06:11:02;18.07;;;8.40;;
14984;SDS011;7588;62.368;25.902;2022-12-20T06:13:29;20.63;;;9.17;;
14984;SDS011;7588;62.368;25.902;2022-12-20T06:15:55;19.23;;;8.73;;
14984;SDS011;7588;62.368;25.902;2022-12-20T06:18:20;19.13;;;9.23;;
14984;SDS011;7588;62.368;25.902;2022-12-20T06:20:50;25.20;;;10.00;;
14984;SDS011;7588;62.368;25.902;2022-12-20T06:23:16;19.00;;;9.87;;
14984;SDS011;7588;62.368;25.902;2022-12-20T06:25:43;21.63;;;8.87;;
14984;SDS011;7588;62.368;25.902;2022-12-20T06:28:08;18.77;;;8.87;;
14984;SDS011;7588;62.368;25.902;2022-12-20T06:30:34;23.60;;;12.50;;
14984;SDS011;7588;62.368;25.902;2022-12-20T06:33:01;19.23;;;10.40;;
14984;SDS011;7588;62.368;25.902;2022-12-20T06:35:27;25.13;;;12.53;;
14984;SDS011;7588;62.368;25.902;2022-12-20T06:37:53;18.83;;;8.40;;
14984;SDS011;7588;62.368;25.902;2022-12-20T06:40:19;20.43;;;9.00;;
14984;SDS011;7588;62.368;25.902;2022-12-20T06:42:45;18.30;;;9.30;;
14984;SDS011;7588;62.368;25.902;2022-12-20T06:45:11;18.70;;;9.90;;
14984;SDS011;7588;62.368;25.902;2022-12-20T06:47:36;17.00;;;10.83;;
14984;SDS011;7588;62.368;25.902;2022-12-20T06:50:03;15.60;;;8.60;;
14984;SDS011;7588;62.368;25.902;2022-12-20T06:52:29;22.53;;;8.70;;
14984;SDS011;7588;62.368;25.902;2022-12-20T06:54:55;19.83;;;11.47;;
14984;SDS011;7588;62.368;25.902;2022-12-20T06:57:21;21.13;;;9.37;;
14984;SDS011;7588;62.368;25.902;2022-12-20T06:59:47;15.30;;;8.67;;
14984;SDS011;7588;62.368;25.902;2022-12-20T07:02:13;15.87;;;7.83;;
14984;SDS011;7588;62.368;25.902;2022-12-20T07:04:39;14.43;;;8.63;;
14984;SDS011;7588;62.368;25.902;2022-12-20T07:07:04;19.23;;;9.47;;
14984;SDS011;7588;62.368;25.902;2022-12-20T07:09:30;27.50;;;17.07;;
14984;SDS011;7588;62.368;25.902;2022-12-20T07:11:57;16.93;;;11.37;;
14984;SDS011;7588;62.368;25.902;2022-12-20T07:14:22;17.57;;;10.20;;
14984;SDS011;7588;62.368;25.902;2022-12-20T07:16:48;17.27;;;9.77;;
14984;SDS011;7588;62.368;25.902;2022-12-20T07:19:14;20.10;;;9.80;;
14984;SDS011;7588;62.368;25.902;2022-12-20T07:21:40;18.83;;;8.77;;
14984;SDS011;7588;62.368;25.902;2022-12-20T07:24:07;20.40;;;11.87;;
14984;SDS011;7588;62.368;25.902;2022-12-20T07:26:32;19.13;;;9.93;;
14984;SDS011;7588;62.368;25.902;2022-12-20T07:28:58;50.10;;;38.63;;
14984;SDS011;7588;62.368;25.902;2022-12-20T07:31:24;20.10;;;11.33;;
14984;SDS011;7588;62.368;25.902;2022-12-20T07:33:50;24.60;;;11.83;;
14984;SDS011;7588;62.368;25.902;2022-12-20T07:36:16;25.47;;;13.33;;
14984;SDS011;7588;62.368;25.902;2022-12-20T07:38:42;25.00;;;9.83;;
14984;SDS011;7588;62.368;25.902;2022-12-20T07:41:08;22.27;;;9.23;;
14984;SDS011;7588;62.368;25.902;2022-12-20T07:43:35;22.63;;;10.13;;
14984;SDS011;7588;62.368;25.902;2022-12-20T07:46:01;21.70;;;9.67;;
14984;SDS011;7588;62.368;25.902;2022-12-20T07:48:28;24.50;;;14.77;;
14984;SDS011;7588;62.368;25.902;2022-12-20T07:50:55;24.40;;;13.40;;
14984;SDS011;7588;62.368;25.902;2022-12-20T07:53:25;23.60;;;11.43;;
14984;SDS011;7588;62.368;25.902;2022-12-20T07:55:54;26.70;;;10.83;;
14984;SDS011;7588;62.368;25.902;2022-12-20T07:58:21;26.23;;;10.60;;
14984;SDS011;7588;62.368;25.902;2022-12-20T08:00:47;23.70;;;10.30;;
14984;SDS011;7588;62.368;25.902;2022-12-20T08:03:17;24.97;;;11.53;;
14984;SDS011;7588;62.368;25.902;2022-12-20T08:05:50;29.93;;;11.73;;
14984;SDS011;7588;62.368;25.902;2022-12-20T08:08:19;24.10;;;11.57;;
14984;SDS011;7588;62.368;25.902;2022-12-20T08:10:46;29.23;;;12.33;;
14984;SDS011;7588;62.368;25.902;2022-12-20T08:13:13;26.90;;;11.80;;
14984;SDS011;7588;62.368;25.902;2022-12-20T08:15:39;25.40;;;11.37;;
14984;SDS011;7588;62.368;25.902;2022-12-20T08:18:05;25.80;;;10.90;;
14984;SDS011;7588;62.368;25.902;2022-12-20T08:20:31;24.37;;;12.53;;
14984;SDS011;7588;62.368;25.902;2022-12-20T08:22:57;22.67;;;11.20;;
14984;SDS011;7588;62.368;25.902;2022-12-20T08:25:23;26.73;;;12.97;;
14984;SDS011;7588;62.368;25.902;2022-12-20T08:27:49;28.77;;;11.47;;
14984;SDS011;7588;62.368;25.902;2022-12-20T08:30:15;29.40;;;12.13;;
14984;SDS011;7588;62.368;25.902;2022-12-20T08:32:41;28.00;;;11.90;;
14984;SDS011;7588;62.368;25.902;2022-12-20T08:35:07;33.10;;;12.53;;
14984;SDS011;7588;62.368;25.902;2022-12-20T08:37:33;27.50;;;12.03;;
14984;SDS011;7588;62.368;25.902;2022-12-20T08:39:59;27.30;;;12.40;;
14984;SDS011;7588;62.368;25.902;2022-12-20T08:42:25;24.57;;;11.87;;
14984;SDS011;7588;62.368;25.902;2022-12-20T08:44:51;27.80;;;13.07;;
14984;SDS011;7588;62.368;25.902;2022-12-20T08:47:17;24.30;;;13.23;;
14984;SDS011;7588;62.368;25.902;2022-12-20T08:49:43;28.93;;;13.17;;
14984;SDS011;7588;62.368;25.902;2022-12-20T08:52:08;35.87;;;16.63;;
14984;SDS011;7588;62.368;25.902;2022-12-20T08:54:34;25.97;;;13.37;;
14984;SDS011;7588;62.368;25.902;2022-12-20T08:57:00;32.67;;;13.47;;
14984;SDS011;7588;62.368;25.902;2022-12-20T08:59:26;30.37;;;13.93;;
14984;SDS011;7588;62.368;25.902;2022-12-20T09:01:52;32.73;;;18.87;;
14984;SDS011;7588;62.368;25.902;2022-12-20T09:04:19;29.10;;;13.90;;
14984;SDS011;7588;62.368;25.902;2022-12-20T09:06:45;32.87;;;13.57;;
14984;SDS011;7588;62.368;25.902;2022-12-20T09:09:11;30.37;;;15.03;;
14984;SDS011;7588;62.368;25.902;2022-12-20T09:11:37;29.93;;;12.43;;
14984;SDS011;7588;62.368;25.902;2022-12-20T09:14:03;32.67;;;16.57;;
14984;SDS011;7588;62.368;25.902;2022-12-20T09:16:29;28.43;;;14.70;;
14984;SDS011;7588;62.368;25.902;2022-12-20T09:18:57;29.13;;;15.47;;
14984;SDS011;7588;62.368;25.902;2022-12-20T09:21:24;28.00;;;15.83;;
14984;SDS011;7588;62.368;25.902;2022-12-20T09:23:50;23.33;;;11.67;;
14984;SDS011;7588;62.368;25.902;2022-12-20T09:26:21;22.63;;;12.17;;
14984;SDS011;7588;62.368;25.902;2022-12-20T09:28:47;24.37;;;12.10;;
14984;SDS011;7588;62.368;25.902;2022-12-20T09:31:15;23.63;;;11.50;;
14984;SDS011;7588;62.368;25.902;2022-12-20T09:33:42;24.47;;;12.80;;
14984;SDS011;7588;62.368;25.902;2022-12-20T09:36:12;27.07;;;12.80;;
14984;SDS011;7588;62.368;25.902;2022-12-20T09:38:41;24.17;;;12.83;;
14984;SDS011;7588;62.368;25.902;2022-12-20T09:41:07;22.33;;;11.60;;
14984;SDS011;7588;62.368;25.902;2022-12-20T09:43:42;27.43;;;13.60;;
14984;SDS011;7588;62.368;25.902;2022-12-20T09:46:09;27.57;;;12.93;;
14984;SDS011;7588;62.368;25.902;2022-12-20T09:48:38;25.00;;;12.33;;
14984;SDS011;7588;62.368;25.902;2022-12-20T09:56:39;26.63;;;12.77;;
14984;SDS011;7588;62.368;25.902;2022-12-20T09:59:12;22.93;;;12.50;;
14984;SDS011;7588;62.368;25.902;2022-12-20T10:01:42;26.40;;;12.77;;
14984;SDS011;7588;62.368;25.902;2022-12-20T10:04:30;28.83;;;16.13;;
14984;SDS011;7588;62.368;25.902;2022-12-20T10:23:26;33.90;;;13.93;;
14984;SDS011;7588;62.368;25.902;2022-12-20T10:26:07;29.70;;;14.97;;
14984;SDS011;7588;62.368;25.902;2022-12-20T10:28:35;30.77;;;14.50;;
14984;SDS011;7588;62.368;25.902;2022-12-20T10:31:02;23.33;;;12.20;;
14984;SDS011;7588;62.368;25.902;2022-12-20T10:33:31;26.00;;;13.03;;
14984;SDS011;7588;62.368;25.902;2022-12-20T10:36:42;31.87;;;14.03;;
14984;SDS011;7588;62.368;25.902;2022-12-20T10:38:53;31.83;;;13.50;;
14984;SDS011;7588;62.368;25.902;2022-12-20T10:41:27;27.37;;;12.60;;
14984;SDS011;7588;62.368;25.902;2022-12-20T10:46:37;22.77;;;11.90;;
14984;SDS011;7588;62.368;25.902;2022-12-20T10:49:20;22.80;;;12.10;;
14984;SDS011;7588;62.368;25.902;2022-12-20T10:54:34;22.93;;;12.20;;
14984;SDS011;7588;62.368;25.902;2022-12-20T10:57:22;32.53;;;13.43;;
14984;SDS011;7588;62.368;25.902;2022-12-20T10:59:53;24.50;;;12.27;;
14984;SDS011;7588;62.368;25.902;2022-12-20T11:07:33;25.43;;;13.67;;
14984;SDS011;7588;62.368;25.902;2022-12-20T11:10:16;25.57;;;14.30;;
14984;SDS011;7588;62.368;25.902;2022-12-20T11:12:55;23.63;;;12.00;;
14984;SDS011;7588;62.368;25.902;2022-12-20T11:15:23;21.97;;;10.17;;
14984;SDS011;7588;62.368;25.902;2022-12-20T11:17:52;21.00;;;11.13;;
14984;SDS011;7588;62.368;25.902;2022-12-20T11:20:50;25.57;;;14.00;;
14984;SDS011;7588;62.368;25.902;2022-12-20T11:23:34;25.00;;;11.70;;
14984;SDS011;7588;62.368;25.902;2022-12-20T11:26:25;26.17;;;11.47;;
14984;SDS011;7588;62.368;25.902;2022-12-20T11:29:17;19.87;;;10.90;;
14984;SDS011;7588;62.368;25.902;2022-12-20T11:32:00;21.90;;;12.27;;
14984;SDS011;7588;62.368;25.902;2022-12-20T11:37:23;22.47;;;10.40;;
14984;SDS011;7588;62.368;25.902;2022-12-20T11:56:43;16.80;;;10.03;;
14984;SDS011;7588;62.368;25.902;2022-12-20T12:01:49;18.57;;;9.50;;
14984;SDS011;7588;62.368;25.902;2022-12-20T12:04:24;17.87;;;9.80;;
14984;SDS011;7588;62.368;25.902;2022-12-20T12:07:07;20.27;;;9.63;;
14984;SDS011;7588;62.368;25.902;2022-12-20T12:12:33;15.67;;;8.50;;
14984;SDS011;7588;62.368;25.902;2022-12-20T12:15:23;20.67;;;9.67;;
14984;SDS011;7588;62.368;25.902;2022-12-20T12:17:52;16.90;;;9.50;;
14984;SDS011;7588;62.368;25.902;2022-12-20T12:23:17;19.07;;;9.63;;
14984;SDS011;7588;62.368;25.902;2022-12-20T12:25:50;16.93;;;9.47;;
14984;SDS011;7588;62.368;25.902;2022-12-20T12:28:16;16.30;;;9.80;;
14984;SDS011;7588;62.368;25.902;2022-12-20T12:30:46;17.63;;;9.83;;
14984;SDS011;7588;62.368;25.902;2022-12-20T12:33:20;18.30;;;9.77;;
14984;SDS011;7588;62.368;25.902;2022-12-20T12:43:53;21.37;;;10.50;;
14984;SDS011;7588;62.368;25.902;2022-12-20T12:46:39;16.60;;;9.17;;
14984;SDS011;7588;62.368;25.902;2022-12-20T12:49:18;19.87;;;10.17;;
14984;SDS011;7588;62.368;25.902;2022-12-20T12:51:51;17.13;;;9.37;;
14984;SDS011;7588;62.368;25.902;2022-12-20T12:54:38;16.80;;;9.67;;
14984;SDS011;7588;62.368;25.902;2022-12-20T12:59:44;19.10;;;9.57;;
14984;SDS011;7588;62.368;25.902;2022-12-20T13:04:58;17.77;;;10.20;;
14984;SDS011;7588;62.368;25.902;2022-12-20T13:09:57;17.00;;;8.40;;
14984;SDS011;7588;62.368;25.902;2022-12-20T13:17:55;19.80;;;9.97;;
14984;SDS011;7588;62.368;25.902;2022-12-20T13:20:29;19.20;;;10.10;;
14984;SDS011;7588;62.368;25.902;2022-12-20T13:25:39;20.43;;;10.00;;
14984;SDS011;7588;62.368;25.902;2022-12-20T13:38:37;20.33;;;9.23;;
14984;SDS011;7588;62.368;25.902;2022-12-20T13:41:26;17.93;;;9.97;;
14984;SDS011;7588;62.368;25.902;2022-12-20T13:44:15;14.33;;;9.27;;
14984;SDS011;7588;62.368;25.902;2022-12-20T13:47:06;17.73;;;9.63;;
14984;SDS011;7588;62.368;25.902;2022-12-20T13:49:45;19.97;;;10.87;;
14984;SDS011;7588;62.368;25.902;2022-12-20T13:54:53;19.63;;;10.50;;
14984;SDS011;7588;62.368;25.902;2022-12-20T13:57:25;17.00;;;10.90;;
14984;SDS011;7588;62.368;25.902;2022-12-20T14:00:04;16.80;;;9.83;;
14984;SDS011;7588;62.368;25.902;2022-12-20T14:02:41;20.33;;;9.67;;
14984;SDS011;7588;62.368;25.902;2022-12-20T14:05:15;15.40;;;9.80;;
14984;SDS011;7588;62.368;25.902;2022-12-20T14:07:46;20.07;;;10.73;;
14984;SDS011;7588;62.368;25.902;2022-12-20T14:10:20;16.83;;;9.97;;
14984;SDS011;7588;62.368;25.902;2022-12-20T14:12:49;17.07;;;9.77;;
14984;SDS011;7588;62.368;25.902;2022-12-20T14:15:19;23.47;;;11.33;;
14984;SDS011;7588;62.368;25.902;2022-12-20T14:17:50;21.07;;;10.90;;
14984;SDS011;7588;62.368;25.902;2022-12-20T14:20:17;20.77;;;14.30;;
14984;SDS011;7588;62.368;25.902;2022-12-20T14:23:05;19.53;;;12.90;;
14984;SDS011;7588;62.368;25.902;2022-12-20T14:30:59;18.30;;;10.63;;
14984;SDS011;7588;62.368;25.902;2022-12-20T14:33:37;15.97;;;9.43;;
14984;SDS011;7588;62.368;25.902;2022-12-20T14:38:43;18.97;;;10.37;;
14984;SDS011;7588;62.368;25.902;2022-12-20T14:44:11;19.60;;;11.67;;
14984;SDS011;7588;62.368;25.902;2022-12-20T14:46:45;16.80;;;11.27;;
14984;SDS011;7588;62.368;25.902;2022-12-20T14:49:26;19.47;;;10.93;;
14984;SDS011;7588;62.368;25.902;2022-12-20T14:52:54;19.70;;;11.93;;
14984;SDS011;7588;62.368;25.902;2022-12-20T15:13:44;20.97;;;11.70;;
14984;SDS011;7588;62.368;25.902;2022-12-20T15:16:14;19.63;;;11.37;;
14984;SDS011;7588;62.368;25.902;2022-12-20T15:18:55;20.07;;;12.07;;
14984;SDS011;7588;62.368;25.902;2022-12-20T15:21:33;20.83;;;10.87;;
14984;SDS011;7588;62.368;25.902;2022-12-20T15:24:02;23.83;;;12.00;;
14984;SDS011;7588;62.368;25.902;2022-12-20T15:26:33;21.10;;;11.17;;
14984;SDS011;7588;62.368;25.902;2022-12-20T15:28:59;17.93;;;10.80;;
14984;SDS011;7588;62.368;25.902;2022-12-20T15:31:25;22.40;;;10.97;;
14984;SDS011;7588;62.368;25.902;2022-12-20T15:33:52;21.57;;;11.37;;
14984;SDS011;7588;62.368;25.902;2022-12-20T15:36:22;25.87;;;12.40;;
14984;SDS011;7588;62.368;25.902;2022-12-20T15:38:52;20.30;;;11.27;;
14984;SDS011;7588;62.368;25.902;2022-12-20T15:41:24;25.13;;;12.47;;
14984;SDS011;7588;62.368;25.902;2022-12-20T15:43:54;21.70;;;12.50;;
14984;SDS011;7588;62.368;25.902;2022-12-20T15:46:35;21.40;;;12.73;;
14984;SDS011;7588;62.368;25.902;2022-12-20T15:49:01;20.57;;;12.47;;
14984;SDS011;7588;62.368;25.902;2022-12-20T15:51:29;21.77;;;12.97;;
14984;SDS011;7588;62.368;25.902;2022-12-20T15:53:57;22.20;;;13.87;;
14984;SDS011;7588;62.368;25.902;2022-12-20T15:56:24;29.70;;;15.67;;
14984;SDS011;7588;62.368;25.902;2022-12-20T15:58:54;26.57;;;15.07;;
14984;SDS011;7588;62.368;25.902;2022-12-20T16:01:28;28.73;;;16.20;;
14984;SDS011;7588;62.368;25.902;2022-12-20T16:03:59;25.90;;;13.47;;
14984;SDS011;7588;62.368;25.902;2022-12-20T16:06:24;31.40;;;17.40;;
14984;SDS011;7588;62.368;25.902;2022-12-20T16:08:50;29.50;;;18.10;;
14984;SDS011;7588;62.368;25.902;2022-12-20T16:11:19;26.00;;;16.33;;
14984;SDS011;7588;62.368;25.902;2022-12-20T16:13:51;26.33;;;15.57;;
14984;SDS011;7588;62.368;25.902;2022-12-20T16:16:22;22.73;;;12.47;;
14984;SDS011;7588;62.368;25.902;2022-12-20T16:18:49;24.43;;;14.67;;
14984;SDS011;7588;62.368;25.902;2022-12-20T16:21:23;23.73;;;13.30;;
14984;SDS011;7588;62.368;25.902;2022-12-20T16:23:51;23.17;;;12.23;;
14984;SDS011;7588;62.368;25.902;2022-12-20T16:26:18;19.73;;;11.37;;
14984;SDS011;7588;62.368;25.902;2022-12-20T16:28:45;21.37;;;12.63;;
14984;SDS011;7588;62.368;25.902;2022-12-20T16:33:48;23.57;;;12.53;;
14984;SDS011;7588;62.368;25.902;2022-12-20T16:36:15;26.23;;;13.27;;
14984;SDS011;7588;62.368;25.902;2022-12-20T16:38:40;22.63;;;12.53;;
14984;SDS011;7588;62.368;25.902;2022-12-20T16:41:13;23.43;;;13.00;;
14984;SDS011;7588;62.368;25.902;2022-12-20T16:43:44;23.93;;;12.40;;
14984;SDS011;7588;62.368;25.902;2022-12-20T16:46:11;23.70;;;12.83;;
14984;SDS011;7588;62.368;25.902;2022-12-20T16:48:39;25.60;;;14.07;;
14984;SDS011;7588;62.368;25.902;2022-12-20T16:53:47;26.27;;;13.90;;
14984;SDS011;7588;62.368;25.902;2022-12-20T16:56:13;26.67;;;13.47;;
14984;SDS011;7588;62.368;25.902;2022-12-20T16:58:39;23.17;;;13.40;;
14984;SDS011;7588;62.368;25.902;2022-12-20T17:01:13;27.10;;;13.20;;
14984;SDS011;7588;62.368;25.902;2022-12-20T17:03:43;22.53;;;12.73;;
14984;SDS011;7588;62.368;25.902;2022-12-20T17:06:10;22.43;;;13.37;;
14984;SDS011;7588;62.368;25.902;2022-12-20T17:08:38;22.83;;;13.00;;
14984;SDS011;7588;62.368;25.902;2022-12-20T17:11:46;24.33;;;13.80;;
14984;SDS011;7588;62.368;25.902;2022-12-20T17:13:55;25.67;;;13.47;;
14984;SDS011;7588;62.368;25.902;2022-12-20T17:16:21;24.07;;;13.40;;
14984;SDS011;7588;62.368;25.902;2022-12-20T17:18:48;21.63;;;13.50;;